Time;durP1;ratioP1;P1;durP2;ratioP2;P2;SDS_P1;SDS_P2;PMS_P1;PMS_P2;Temp;Humidity;BMP_temperature;BMP_pressure;BME280_temperature;BME280_humidity;BME280_pressure;Samples;Min_cycle;Max_cycle;Signal;HPM_P1;HPM_P2
2022/12/08 00:01:40;;;;;;;5.70;0.77;;;;;;;;;;5017189;28;20042;-64
2022/12/08 00:04:06;;;;;;;2.55;0.73;;;;;;;;;;5044352;28;20061;-65
2022/12/08 00:09:21;;;;;;;3.17;0.73;;;;;;;;;;5016766;28;20048;-64
2022/12/08 00:11:58;;;;;;;3.60;0.80;;;;;;;;;;5042236;28;20053;-64
2022/12/08 00:14:45;;;;;;;4.55;0.70;;;;;;;;;;5015567;28;20037;-65
2022/12/08 00:17:13;;;;;;;2.05;0.63;;;;;;;;;;5020219;28;20076;-65
2022/12/08 00:19:40;;;;;;;3.08;1.00;;;;;;;;;;5037931;28;20041;-67
2022/12/08 00:22:07;;;;;;;3.55;0.70;;;;;;;;;;5038184;28;20041;-66
2022/12/08 00:24:38;;;;;;;2.42;0.70;;;;;;;;;;5015327;28;20825;-66
2022/12/08 00:27:05;;;;;;;2.25;0.70;;;;;;;;;;5017599;28;20045;-66
2022/12/08 00:29:32;;;;;;;2.25;0.70;;;;;;;;;;5014309;28;21212;-65
2022/12/08 00:31:59;;;;;;;4.05;0.90;;;;;;;;;;5017145;28;20482;-64
2022/12/08 00:34:25;;;;;;;2.70;0.73;;;;;;;;;;5014758;28;20037;-64
2022/12/08 00:36:52;;;;;;;2.22;0.63;;;;;;;;;;5015654;28;20041;-64
2022/12/08 00:39:19;;;;;;;3.13;0.80;;;;;;;;;;5014594;28;20033;-65
2022/12/08 00:44:30;;;;;;;2.55;0.75;;;;;;;;;;5015573;28;20048;-65
2022/12/08 00:46:57;;;;;;;4.88;0.80;;;;;;;;;;5017798;28;20056;-65
2022/12/08 00:49:26;;;;;;;1.83;0.60;;;;;;;;;;5016477;28;20339;-65
2022/12/08 00:51:53;;;;;;;3.15;0.77;;;;;;;;;;5036025;28;20092;-65
2022/12/08 00:54:21;;;;;;;2.35;0.77;;;;;;;;;;5015037;28;20346;-65
2022/12/08 00:56:48;;;;;;;1.80;0.68;;;;;;;;;;5015532;28;20069;-65
2022/12/08 00:59:15;;;;;;;2.28;0.60;;;;;;;;;;5025300;28;20061;-65
2022/12/08 01:01:43;;;;;;;2.28;0.68;;;;;;;;;;5013310;28;20064;-66
2022/12/08 01:04:14;;;;;;;2.70;0.80;;;;;;;;;;5029634;28;20037;-65
2022/12/08 01:06:41;;;;;;;4.25;0.70;;;;;;;;;;5011891;28;20131;-66
2022/12/08 01:09:08;;;;;;;4.00;1.17;;;;;;;;;;5039372;28;20037;-66
2022/12/08 01:11:36;;;;;;;2.10;0.70;;;;;;;;;;5014429;28;20058;-65
2022/12/08 01:14:03;;;;;;;4.53;0.98;;;;;;;;;;5017966;28;20869;-65
2022/12/08 01:16:30;;;;;;;2.45;0.75;;;;;;;;;;5015522;28;20708;-66
2022/12/08 01:18:58;;;;;;;2.58;0.77;;;;;;;;;;5036476;28;20037;-66
2022/12/08 01:21:25;;;;;;;2.63;0.73;;;;;;;;;;5015913;28;20042;-66
2022/12/08 01:23:52;;;;;;;2.20;0.70;;;;;;;;;;5014393;28;20048;-66
2022/12/08 01:26:20;;;;;;;2.67;0.70;;;;;;;;;;5016581;28;20129;-66
2022/12/08 01:28:49;;;;;;;3.95;0.80;;;;;;;;;;5013680;28;20045;-67
2022/12/08 01:31:17;;;;;;;2.33;0.82;;;;;;;;;;5012347;28;20128;-65
2022/12/08 01:33:44;;;;;;;4.35;0.98;;;;;;;;;;5026919;28;20048;-66
2022/12/08 01:36:22;;;;;;;3.95;0.95;;;;;;;;;;5015984;28;20080;-65
2022/12/08 01:38:49;;;;;;;1.98;0.80;;;;;;;;;;5012361;28;20509;-68
2022/12/08 01:41:17;;;;;;;2.60;0.80;;;;;;;;;;5017544;28;20049;-65
2022/12/08 01:43:49;;;;;;;2.25;0.68;;;;;;;;;;5012767;28;20156;-67
2022/12/08 01:46:17;;;;;;;2.00;0.70;;;;;;;;;;5013738;28;20068;-66
2022/12/08 01:48:44;;;;;;;3.22;0.88;;;;;;;;;;5025919;28;20034;-65
2022/12/08 01:51:11;;;;;;;4.20;0.85;;;;;;;;;;5034871;28;20077;-65
2022/12/08 01:53:38;;;;;;;3.20;0.85;;;;;;;;;;5033927;28;20029;-64
2022/12/08 01:56:10;;;;;;;2.92;0.85;;;;;;;;;;5036949;28;20041;-65
2022/12/08 01:58:41;;;;;;;1.92;0.57;;;;;;;;;;5028015;28;20037;-66
2022/12/08 02:01:08;;;;;;;4.03;0.80;;;;;;;;;;5049343;28;20034;-66
2022/12/08 02:03:44;;;;;;;2.08;0.60;;;;;;;;;;5015343;28;20037;-64
2022/12/08 02:06:11;;;;;;;2.88;0.73;;;;;;;;;;5014074;28;20108;-65
2022/12/08 02:08:40;;;;;;;4.47;0.90;;;;;;;;;;5034467;28;20166;-64
2022/12/08 02:11:10;;;;;;;2.00;0.63;;;;;;;;;;5016882;28;20136;-67
2022/12/08 02:13:37;;;;;;;5.60;0.73;;;;;;;;;;5013725;28;20036;-66
2022/12/08 02:16:22;;;;;;;1.90;0.60;;;;;;;;;;5031134;28;20074;-64
2022/12/08 02:19:07;;;;;;;3.50;0.63;;;;;;;;;;5026803;28;20131;-64
2022/12/08 02:21:38;;;;;;;2.42;0.70;;;;;;;;;;5019819;28;20052;-64
2022/12/08 02:24:07;;;;;;;2.97;0.80;;;;;;;;;;5042596;28;20038;-65
2022/12/08 02:26:34;;;;;;;2.33;0.73;;;;;;;;;;5013212;28;20053;-66
2022/12/08 02:29:01;;;;;;;2.85;0.73;;;;;;;;;;5016346;28;20041;-65
2022/12/08 02:31:49;;;;;;;2.67;0.65;;;;;;;;;;5014068;28;20964;-66
2022/12/08 02:34:18;;;;;;;2.72;0.70;;;;;;;;;;5011237;28;20511;-65
2022/12/08 02:36:51;;;;;;;4.10;0.75;;;;;;;;;;5024246;28;20037;-66
2022/12/08 02:39:31;;;;;;;2.88;0.88;;;;;;;;;;5017778;28;20041;-67
2022/12/08 02:42:20;;;;;;;2.10;0.70;;;;;;;;;;5018207;28;20033;-65
2022/12/08 02:45:03;;;;;;;2.28;0.70;;;;;;;;;;5055841;28;20034;-66
2022/12/08 02:47:30;;;;;;;2.20;0.60;;;;;;;;;;5016847;28;20053;-65
2022/12/08 02:49:57;;;;;;;2.53;0.60;;;;;;;;;;5015794;28;22266;-66
2022/12/08 02:52:24;;;;;;;1.45;0.50;;;;;;;;;;5038834;28;20045;-66
2022/12/08 02:54:53;;;;;;;1.95;0.60;;;;;;;;;;5015815;28;20413;-68
2022/12/08 02:57:31;;;;;;;1.67;0.60;;;;;;;;;;5033745;28;20064;-66
2022/12/08 03:00:04;;;;;;;1.90;0.65;;;;;;;;;;5028392;28;20502;-64
2022/12/08 03:02:31;;;;;;;1.67;0.55;;;;;;;;;;5038715;28;20033;-64
2022/12/08 03:05:05;;;;;;;1.75;0.60;;;;;;;;;;5040830;28;20069;-65
2022/12/08 03:07:35;;;;;;;2.35;0.70;;;;;;;;;;5017573;28;20038;-64
2022/12/08 03:10:20;;;;;;;3.42;0.70;;;;;;;;;;5026243;28;20044;-66
2022/12/08 03:12:54;;;;;;;1.58;0.55;;;;;;;;;;5025757;28;20052;-67
2022/12/08 03:15:21;;;;;;;3.05;0.70;;;;;;;;;;5019824;28;20140;-65
2022/12/08 03:17:52;;;;;;;2.10;0.63;;;;;;;;;;5023640;28;20049;-65
2022/12/08 03:20:22;;;;;;;3.55;0.52;;;;;;;;;;5036140;28;20037;-65
2022/12/08 03:22:50;;;;;;;1.55;0.50;;;;;;;;;;5051654;28;20511;-65
2022/12/08 03:25:19;;;;;;;3.47;0.60;;;;;;;;;;5018804;28;20057;-65
2022/12/08 03:27:46;;;;;;;1.42;0.50;;;;;;;;;;5037333;28;20510;-66
2022/12/08 03:30:35;;;;;;;1.83;0.60;;;;;;;;;;5077454;28;20056;-66
2022/12/08 03:33:04;;;;;;;1.98;0.60;;;;;;;;;;5070560;28;20467;-65
2022/12/08 03:35:33;;;;;;;1.58;0.50;;;;;;;;;;5068015;28;20033;-66
2022/12/08 03:38:10;;;;;;;1.85;0.50;;;;;;;;;;5045690;28;20051;-67
2022/12/08 03:40:37;;;;;;;2.22;0.60;;;;;;;;;;5076886;28;20044;-66
2022/12/08 03:43:04;;;;;;;1.08;0.45;;;;;;;;;;5053692;28;20062;-68
2022/12/08 03:45:31;;;;;;;1.52;0.70;;;;;;;;;;5068335;28;20039;-66
2022/12/08 03:47:58;;;;;;;1.63;0.47;;;;;;;;;;5057082;28;20059;-65
2022/12/08 03:50:25;;;;;;;1.75;0.40;;;;;;;;;;5027072;28;20044;-66
2022/12/08 03:52:51;;;;;;;2.05;0.65;;;;;;;;;;5052376;28;20048;-66
2022/12/08 03:55:20;;;;;;;3.58;0.60;;;;;;;;;;5057589;28;20385;-66
2022/12/08 03:57:48;;;;;;;2.13;0.70;;;;;;;;;;5040420;28;20051;-66
2022/12/08 04:00:15;;;;;;;1.92;0.60;;;;;;;;;;5015000;28;21836;-65
2022/12/08 04:02:42;;;;;;;1.80;0.50;;;;;;;;;;5032802;28;20045;-65
2022/12/08 04:05:09;;;;;;;2.67;0.60;;;;;;;;;;5033771;28;20090;-66
2022/12/08 04:07:35;;;;;;;1.38;0.50;;;;;;;;;;5048926;28;20371;-65
2022/12/08 04:10:02;;;;;;;1.25;0.45;;;;;;;;;;5036692;28;20831;-65
2022/12/08 04:12:32;;;;;;;1.80;0.60;;;;;;;;;;5036388;28;20402;-66
2022/12/08 04:14:59;;;;;;;1.80;0.50;;;;;;;;;;5020673;28;20563;-66
2022/12/08 04:17:25;;;;;;;2.00;0.73;;;;;;;;;;5025551;28;20060;-66
2022/12/08 04:19:52;;;;;;;2.17;0.60;;;;;;;;;;5038942;28;20069;-65
2022/12/08 04:22:19;;;;;;;3.40;0.65;;;;;;;;;;5029213;28;20045;-66
2022/12/08 04:24:46;;;;;;;3.25;0.60;;;;;;;;;;5014106;28;20112;-67
2022/12/08 04:27:12;;;;;;;1.83;0.60;;;;;;;;;;5051343;28;20053;-64
2022/12/08 04:29:39;;;;;;;2.90;0.60;;;;;;;;;;5050220;28;20127;-68
2022/12/08 04:32:06;;;;;;;3.80;0.60;;;;;;;;;;5017727;28;20045;-63
2022/12/08 04:34:33;;;;;;;1.60;0.50;;;;;;;;;;5018669;28;20041;-66
2022/12/08 04:37:01;;;;;;;3.30;0.50;;;;;;;;;;5018231;28;20124;-67
2022/12/08 04:39:28;;;;;;;1.73;0.50;;;;;;;;;;5019879;28;20520;-66
2022/12/08 04:41:54;;;;;;;1.27;0.40;;;;;;;;;;5042007;28;20050;-66
2022/12/08 04:44:21;;;;;;;1.85;0.60;;;;;;;;;;5019045;28;20057;-66
2022/12/08 04:46:48;;;;;;;2.22;0.60;;;;;;;;;;5018287;28;20521;-66
2022/12/08 04:49:14;;;;;;;1.20;0.40;;;;;;;;;;5019342;28;21755;-65
2022/12/08 04:51:41;;;;;;;1.25;0.50;;;;;;;;;;5017388;28;20686;-65
2022/12/08 04:54:08;;;;;;;1.80;0.52;;;;;;;;;;5019224;28;20030;-66
2022/12/08 04:56:34;;;;;;;1.25;0.50;;;;;;;;;;5013470;28;20056;-65
2022/12/08 04:59:01;;;;;;;1.85;0.50;;;;;;;;;;5045388;28;20087;-66
2022/12/08 05:01:28;;;;;;;2.05;0.47;;;;;;;;;;5016926;28;20087;-67
2022/12/08 05:03:54;;;;;;;1.75;0.50;;;;;;;;;;5017746;28;21148;-66
2022/12/08 05:06:21;;;;;;;1.77;0.55;;;;;;;;;;5017201;28;20318;-66
2022/12/08 05:08:48;;;;;;;4.38;1.30;;;;;;;;;;5019819;28;20036;-67
2022/12/08 05:11:14;;;;;;;2.13;0.50;;;;;;;;;;5018455;28;20049;-66
2022/12/08 05:13:41;;;;;;;1.55;0.50;;;;;;;;;;5018001;28;20053;-66
2022/12/08 05:16:12;;;;;;;2.10;0.60;;;;;;;;;;5034439;28;20042;-66
2022/12/08 05:18:40;;;;;;;2.22;0.65;;;;;;;;;;5018389;28;20271;-66
2022/12/08 05:21:08;;;;;;;1.88;0.70;;;;;;;;;;5016828;28;20120;-66
2022/12/08 05:23:35;;;;;;;3.65;0.80;;;;;;;;;;5027334;28;20037;-66
2022/12/08 05:26:02;;;;;;;3.45;0.60;;;;;;;;;;5019079;28;20045;-66
2022/12/08 05:28:48;;;;;;;2.30;0.60;;;;;;;;;;5066858;28;20064;-66
2022/12/08 05:31:15;;;;;;;3.25;0.85;;;;;;;;;;5075827;28;20478;-66
2022/12/08 05:33:43;;;;;;;1.60;0.57;;;;;;;;;;5071486;28;20067;-65
2022/12/08 05:36:11;;;;;;;3.30;0.60;;;;;;;;;;5073359;28;20040;-65
2022/12/08 05:38:38;;;;;;;2.35;0.70;;;;;;;;;;5075218;28;21100;-66
2022/12/08 05:41:09;;;;;;;2.55;0.70;;;;;;;;;;5075506;28;20765;-65
2022/12/08 05:43:36;;;;;;;3.38;0.90;;;;;;;;;;5073819;28;20576;-66
2022/12/08 05:46:03;;;;;;;2.40;0.70;;;;;;;;;;5059347;28;20040;-66
2022/12/08 05:48:29;;;;;;;2.50;0.80;;;;;;;;;;5073803;28;20996;-66
2022/12/08 05:50:56;;;;;;;5.55;0.60;;;;;;;;;;5075566;28;20198;-67
2022/12/08 05:53:23;;;;;;;3.55;0.70;;;;;;;;;;5051301;28;20622;-66
2022/12/08 05:55:49;;;;;;;2.45;0.55;;;;;;;;;;5055528;28;20538;-65
2022/12/08 05:58:18;;;;;;;2.20;0.70;;;;;;;;;;5058601;28;20847;-66
2022/12/08 06:00:45;;;;;;;1.95;0.70;;;;;;;;;;5052947;28;20044;-66
2022/12/08 06:03:12;;;;;;;2.15;0.60;;;;;;;;;;5055425;28;20032;-65
2022/12/08 06:05:40;;;;;;;1.55;0.55;;;;;;;;;;5046612;28;20038;-65
2022/12/08 06:08:07;;;;;;;6.30;1.20;;;;;;;;;;5019029;28;20041;-65
2022/12/08 06:10:33;;;;;;;3.28;0.70;;;;;;;;;;5016311;28;20773;-66
2022/12/08 06:13:00;;;;;;;3.03;1.00;;;;;;;;;;5018077;28;20053;-66
2022/12/08 06:15:27;;;;;;;2.15;0.60;;;;;;;;;;5016610;28;20640;-65
2022/12/08 06:17:53;;;;;;;2.92;0.70;;;;;;;;;;5016986;28;20125;-66
2022/12/08 06:20:20;;;;;;;3.03;0.80;;;;;;;;;;5017360;28;20033;-65
2022/12/08 06:22:47;;;;;;;3.70;0.77;;;;;;;;;;5028482;28;20042;-66
2022/12/08 06:25:13;;;;;;;2.28;0.65;;;;;;;;;;5017680;28;20053;-66
2022/12/08 06:27:40;;;;;;;3.22;0.90;;;;;;;;;;5018168;28;20045;-65
2022/12/08 06:30:07;;;;;;;3.67;0.75;;;;;;;;;;5018457;28;20071;-65
2022/12/08 06:32:33;;;;;;;5.22;0.68;;;;;;;;;;5028647;28;20056;-65
2022/12/08 06:35:00;;;;;;;1.67;0.57;;;;;;;;;;5049677;28;20026;-66
2022/12/08 06:37:27;;;;;;;2.38;0.65;;;;;;;;;;5019190;28;20065;-66
2022/12/08 06:39:54;;;;;;;1.50;0.50;;;;;;;;;;5033501;28;20437;-67
2022/12/08 06:45:06;;;;;;;1.75;0.50;;;;;;;;;;5017631;28;20554;-66
2022/12/08 06:47:32;;;;;;;1.85;0.50;;;;;;;;;;5045291;28;20048;-66
2022/12/08 06:49:59;;;;;;;1.70;0.57;;;;;;;;;;5019642;28;20091;-66
2022/12/08 06:52:26;;;;;;;1.42;0.50;;;;;;;;;;5027066;28;20045;-66
2022/12/08 06:54:52;;;;;;;1.60;0.40;;;;;;;;;;5028910;28;20061;-65
2022/12/08 06:57:19;;;;;;;0.82;0.38;;;;;;;;;;5019362;28;20605;-65
2022/12/08 06:59:45;;;;;;;1.02;0.50;;;;;;;;;;5051645;28;20096;-66
2022/12/08 07:02:12;;;;;;;1.23;0.40;;;;;;;;;;5065999;28;20087;-65
2022/12/08 07:04:39;;;;;;;1.60;0.55;;;;;;;;;;5036208;28;20029;-65
2022/12/08 07:07:05;;;;;;;1.10;0.40;;;;;;;;;;5052835;28;20086;-65
2022/12/08 07:09:32;;;;;;;2.28;0.70;;;;;;;;;;5052434;28;20059;-65
2022/12/08 07:11:59;;;;;;;1.48;0.50;;;;;;;;;;5038179;28;20052;-65
2022/12/08 07:14:25;;;;;;;3.15;0.60;;;;;;;;;;5035219;28;20037;-65
2022/12/08 07:16:52;;;;;;;2.08;0.60;;;;;;;;;;5036506;28;20037;-65
2022/12/08 07:19:20;;;;;;;2.70;0.55;;;;;;;;;;5030625;28;20760;-67
2022/12/08 07:21:46;;;;;;;1.83;0.50;;;;;;;;;;5017490;28;20067;-64
2022/12/08 07:24:13;;;;;;;2.70;0.50;;;;;;;;;;5041136;28;20126;-66
2022/12/08 07:26:40;;;;;;;1.55;0.43;;;;;;;;;;5021096;28;20134;-66
2022/12/08 07:29:07;;;;;;;1.42;0.50;;;;;;;;;;5021198;28;20037;-65
2022/12/08 07:31:34;;;;;;;1.77;0.40;;;;;;;;;;5020308;28;20057;-68
2022/12/08 07:34:01;;;;;;;1.30;0.57;;;;;;;;;;5020010;28;20053;-66
2022/12/08 07:36:28;;;;;;;2.90;0.47;;;;;;;;;;5052815;28;20041;-65
2022/12/08 07:38:55;;;;;;;1.42;0.50;;;;;;;;;;5035993;28;20091;-64
2022/12/08 07:41:24;;;;;;;1.92;0.52;;;;;;;;;;5026406;28;20481;-66
2022/12/08 07:43:51;;;;;;;3.88;0.57;;;;;;;;;;5018523;28;20041;-65
2022/12/08 07:46:19;;;;;;;2.25;0.50;;;;;;;;;;5036849;28;20156;-66
2022/12/08 07:48:45;;;;;;;1.13;0.50;;;;;;;;;;5030242;28;20049;-66
2022/12/08 07:51:13;;;;;;;1.20;0.40;;;;;;;;;;5020853;28;20111;-67
2022/12/08 07:53:40;;;;;;;1.40;0.45;;;;;;;;;;5019148;28;20049;-66
2022/12/08 07:56:07;;;;;;;1.23;0.43;;;;;;;;;;5021885;28;20037;-63
2022/12/08 07:58:35;;;;;;;1.75;0.50;;;;;;;;;;5019968;28;20049;-63
2022/12/08 08:01:02;;;;;;;3.40;0.60;;;;;;;;;;5021771;28;20060;-64
2022/12/08 08:03:29;;;;;;;5.82;0.70;;;;;;;;;;5019205;28;20029;-64
2022/12/08 08:05:55;;;;;;;0.73;0.30;;;;;;;;;;5021464;28;20509;-64
2022/12/08 08:08:22;;;;;;;1.85;0.60;;;;;;;;;;5019848;28;20442;-63
2022/12/08 08:10:49;;;;;;;0.63;0.40;;;;;;;;;;5019881;28;20703;-64
2022/12/08 08:13:15;;;;;;;2.40;0.50;;;;;;;;;;5019051;28;20051;-64
2022/12/08 08:15:42;;;;;;;2.53;0.65;;;;;;;;;;5017154;28;20047;-64
2022/12/08 08:18:08;;;;;;;0.88;0.40;;;;;;;;;;5022076;28;20030;-65
2022/12/08 08:20:35;;;;;;;1.85;0.50;;;;;;;;;;5020201;28;20093;-63
2022/12/08 08:23:02;;;;;;;1.90;0.60;;;;;;;;;;5028408;28;20052;-66
2022/12/08 08:25:28;;;;;;;1.85;0.40;;;;;;;;;;5018754;28;20052;-65
2022/12/08 08:31:26;;;;;;;1.37;0.40;;;;;;;;;;5022259;28;20872;-65
2022/12/08 08:33:53;;;;;;;1.92;0.60;;;;;;;;;;5024642;28;20149;-64
2022/12/08 08:36:20;;;;;;;1.83;0.52;;;;;;;;;;5041747;28;20045;-64
2022/12/08 08:38:47;;;;;;;2.30;0.60;;;;;;;;;;5051005;28;20041;-65
2022/12/08 08:41:14;;;;;;;1.40;0.50;;;;;;;;;;5042677;28;20119;-64
2022/12/08 08:43:41;;;;;;;1.40;0.50;;;;;;;;;;5017655;28;20068;-65
2022/12/08 08:46:07;;;;;;;1.45;0.55;;;;;;;;;;5041672;28;20037;-64
2022/12/08 08:48:35;;;;;;;2.30;0.70;;;;;;;;;;5053664;28;21925;-64
2022/12/08 08:51:12;;;;;;;1.17;0.50;;;;;;;;;;5039666;28;20798;-64
2022/12/08 08:53:39;;;;;;;1.10;0.47;;;;;;;;;;5038817;28;20045;-64
2022/12/08 08:56:12;;;;;;;0.68;0.38;;;;;;;;;;5039393;28;20976;-65
2022/12/08 08:58:40;;;;;;;1.15;0.50;;;;;;;;;;5050250;28;20501;-65
2022/12/08 09:01:06;;;;;;;3.35;0.50;;;;;;;;;;5019366;28;20132;-65
2022/12/08 09:03:33;;;;;;;1.42;0.50;;;;;;;;;;5017719;28;20061;-65
2022/12/08 09:06:00;;;;;;;1.23;0.40;;;;;;;;;;5018628;28;20088;-65
2022/12/08 09:08:26;;;;;;;2.83;0.70;;;;;;;;;;5018626;28;20045;-65
2022/12/08 09:10:53;;;;;;;2.30;0.50;;;;;;;;;;5019229;28;20048;-65
2022/12/08 09:13:21;;;;;;;1.25;0.50;;;;;;;;;;5020176;28;20033;-64
2022/12/08 09:15:47;;;;;;;1.75;0.50;;;;;;;;;;5017590;28;20081;-65
2022/12/08 09:18:14;;;;;;;1.38;0.40;;;;;;;;;;5021530;28;20042;-65
2022/12/08 09:20:41;;;;;;;1.83;0.57;;;;;;;;;;5018113;28;20041;-65
2022/12/08 09:23:07;;;;;;;1.27;0.45;;;;;;;;;;5016977;28;20041;-65
2022/12/08 09:25:34;;;;;;;1.63;0.50;;;;;;;;;;5017822;28;20057;-65
2022/12/08 09:28:01;;;;;;;1.42;0.40;;;;;;;;;;5019979;28;20041;-65
2022/12/08 09:30:27;;;;;;;1.55;0.60;;;;;;;;;;5018653;28;20160;-65
2022/12/08 09:32:54;;;;;;;1.38;0.40;;;;;;;;;;5018381;28;20548;-68
2022/12/08 09:35:23;;;;;;;1.52;0.63;;;;;;;;;;5017830;28;20501;-66
2022/12/08 09:37:49;;;;;;;1.65;0.47;;;;;;;;;;5018990;28;20061;-66
2022/12/08 09:40:18;;;;;;;2.22;0.60;;;;;;;;;;5018576;28;20423;-66
2022/12/08 09:42:51;;;;;;;1.48;0.40;;;;;;;;;;5018036;28;20046;-66
2022/12/08 09:45:18;;;;;;;1.35;0.50;;;;;;;;;;5016979;28;20497;-66
2022/12/08 09:47:51;;;;;;;0.63;0.30;;;;;;;;;;5017175;28;20034;-66
2022/12/08 09:50:27;;;;;;;1.85;0.50;;;;;;;;;;5018195;28;20133;-65
2022/12/08 09:53:03;;;;;;;1.85;0.57;;;;;;;;;;5049677;28;20041;-65
2022/12/08 09:55:39;;;;;;;1.80;0.60;;;;;;;;;;5017379;28;20042;-66
2022/12/08 09:58:10;;;;;;;1.55;0.60;;;;;;;;;;5018159;28;20053;-66
2022/12/08 10:00:36;;;;;;;2.10;0.70;;;;;;;;;;5017163;28;20226;-67
2022/12/08 10:03:03;;;;;;;0.80;0.40;;;;;;;;;;5017947;28;20459;-67
2022/12/08 10:05:33;;;;;;;3.10;0.50;;;;;;;;;;5032364;28;20072;-65
2022/12/08 10:08:12;;;;;;;2.40;0.60;;;;;;;;;;5018604;28;20037;-65
2022/12/08 10:10:56;;;;;;;1.75;0.60;;;;;;;;;;5019216;28;20045;-65
2022/12/08 10:13:41;;;;;;;1.27;0.50;;;;;;;;;;5018089;28;20049;-66
2022/12/08 10:16:17;;;;;;;2.85;0.70;;;;;;;;;;5048887;28;20033;-66
2022/12/08 10:18:44;;;;;;;2.40;0.70;;;;;;;;;;5018310;28;20405;-65
2022/12/08 10:21:24;;;;;;;1.55;0.52;;;;;;;;;;5017824;28;20175;-65
2022/12/08 10:23:54;;;;;;;5.45;0.70;;;;;;;;;;5016926;28;20465;-65
2022/12/08 10:26:22;;;;;;;2.33;0.60;;;;;;;;;;5015621;28;20073;-65
2022/12/08 10:28:49;;;;;;;4.88;0.70;;;;;;;;;;5017866;28;20084;-65
2022/12/08 10:31:21;;;;;;;2.95;0.60;;;;;;;;;;5017235;28;20723;-64
2022/12/08 10:33:59;;;;;;;1.92;0.60;;;;;;;;;;5017063;28;20052;-65
2022/12/08 10:36:45;;;;;;;1.83;0.60;;;;;;;;;;5016426;28;20122;-65
2022/12/08 10:39:31;;;;;;;2.90;0.80;;;;;;;;;;5019137;28;20604;-66
2022/12/08 10:42:21;;;;;;;0.88;0.40;;;;;;;;;;5014889;28;20037;-65
2022/12/08 10:45:06;;;;;;;1.73;0.70;;;;;;;;;;5020375;28;20118;-65
2022/12/08 10:47:35;;;;;;;3.53;0.65;;;;;;;;;;5017002;28;20037;-66
2022/12/08 10:50:18;;;;;;;2.88;0.80;;;;;;;;;;5016857;28;20728;-66
2022/12/08 10:52:46;;;;;;;2.10;0.60;;;;;;;;;;5037271;28;20512;-66
2022/12/08 10:55:14;;;;;;;3.55;0.60;;;;;;;;;;5037433;28;20506;-66
2022/12/08 10:57:41;;;;;;;2.33;0.70;;;;;;;;;;5036930;28;20082;-66
2022/12/08 11:00:11;;;;;;;1.85;0.60;;;;;;;;;;5042236;28;20037;-65
2022/12/08 11:02:49;;;;;;;2.55;0.70;;;;;;;;;;5041888;28;20049;-64
2022/12/08 11:05:17;;;;;;;1.65;0.60;;;;;;;;;;5042887;28;20036;-64
2022/12/08 11:07:49;;;;;;;2.05;0.68;;;;;;;;;;5040933;28;20041;-64
2022/12/08 11:10:20;;;;;;;2.50;0.70;;;;;;;;;;5041175;28;20136;-65
2022/12/08 11:12:46;;;;;;;1.38;0.55;;;;;;;;;;5036458;28;20059;-65
2022/12/08 11:15:17;;;;;;;2.75;0.80;;;;;;;;;;5026887;28;20510;-65
2022/12/08 11:17:48;;;;;;;1.33;0.60;;;;;;;;;;5041892;28;20958;-65
2022/12/08 11:20:14;;;;;;;1.42;0.45;;;;;;;;;;5041582;28;20041;-65
2022/12/08 11:22:45;;;;;;;2.97;0.95;;;;;;;;;;5041610;28;20033;-65
2022/12/08 11:25:15;;;;;;;7.00;0.90;;;;;;;;;;5041123;28;20061;-65
2022/12/08 11:27:43;;;;;;;2.47;0.70;;;;;;;;;;5040500;28;20074;-65
2022/12/08 11:30:18;;;;;;;2.30;0.70;;;;;;;;;;5051643;28;20584;-65
2022/12/08 11:32:46;;;;;;;2.03;0.80;;;;;;;;;;5037035;28;20064;-65
2022/12/08 11:35:33;;;;;;;1.08;0.45;;;;;;;;;;5021097;28;20045;-65
2022/12/08 11:38:05;;;;;;;2.97;0.80;;;;;;;;;;5027603;28;20045;-66
2022/12/08 11:40:35;;;;;;;1.92;0.70;;;;;;;;;;5020860;28;20053;-65
2022/12/08 11:43:11;;;;;;;1.58;0.63;;;;;;;;;;5048479;28;20582;-65
2022/12/08 11:45:39;;;;;;;1.95;0.60;;;;;;;;;;5044216;28;20087;-65
2022/12/08 11:48:21;;;;;;;2.65;0.73;;;;;;;;;;5040345;28;20041;-65
2022/12/08 11:50:52;;;;;;;2.42;0.80;;;;;;;;;;5054477;28;20512;-65
2022/12/08 11:53:33;;;;;;;1.92;0.70;;;;;;;;;;5039612;28;20056;-65
2022/12/08 11:56:03;;;;;;;2.13;0.68;;;;;;;;;;5040033;28;20083;-64
2022/12/08 11:58:44;;;;;;;1.80;0.63;;;;;;;;;;5054957;28;20037;-64
2022/12/08 12:01:18;;;;;;;1.85;0.63;;;;;;;;;;5050718;28;20041;-64
2022/12/08 12:03:48;;;;;;;2.13;0.63;;;;;;;;;;5038907;28;20480;-65
2022/12/08 12:06:33;;;;;;;2.65;0.65;;;;;;;;;;5041333;28;20580;-65
2022/12/08 12:09:12;;;;;;;2.05;0.65;;;;;;;;;;5028655;28;20070;-65
2022/12/08 12:12:18;;;;;;;2.65;0.70;;;;;;;;;;5045243;28;20872;-64
2022/12/08 12:14:56;;;;;;;2.50;0.88;;;;;;;;;;5040683;28;20040;-64
2022/12/08 12:17:45;;;;;;;1.70;0.68;;;;;;;;;;5039658;28;20095;-65
2022/12/08 12:20:16;;;;;;;2.40;0.80;;;;;;;;;;5041255;28;20067;-65
2022/12/08 12:22:45;;;;;;;1.92;0.70;;;;;;;;;;5039740;28;20153;-64
2022/12/08 12:25:19;;;;;;;4.28;0.80;;;;;;;;;;5041124;28;20863;-65
2022/12/08 12:27:45;;;;;;;2.35;0.75;;;;;;;;;;5039495;28;20045;-64
2022/12/08 12:30:20;;;;;;;8.38;1.10;;;;;;;;;;5035375;28;20067;-66
2022/12/08 12:32:51;;;;;;;2.92;1.00;;;;;;;;;;5021113;28;20049;-64
2022/12/08 12:35:26;;;;;;;5.63;1.20;;;;;;;;;;5020576;28;20823;-65
2022/12/08 12:37:55;;;;;;;3.67;1.10;;;;;;;;;;5019110;28;20064;-65
2022/12/08 12:40:23;;;;;;;6.47;1.00;;;;;;;;;;5019058;28;20081;-65
2022/12/08 12:42:56;;;;;;;2.67;0.85;;;;;;;;;;5024548;28;20954;-65
2022/12/08 12:45:24;;;;;;;3.47;0.90;;;;;;;;;;5020019;28;20251;-65
2022/12/08 12:47:51;;;;;;;1.85;0.77;;;;;;;;;;5032169;28;20136;-65
2022/12/08 12:50:33;;;;;;;2.00;0.70;;;;;;;;;;5022825;28;20360;-65
2022/12/08 12:53:25;;;;;;;2.72;0.98;;;;;;;;;;5019309;28;20116;-67
2022/12/08 12:55:54;;;;;;;5.07;1.08;;;;;;;;;;5018239;28;20044;-65
2022/12/08 12:58:29;;;;;;;5.50;1.00;;;;;;;;;;5017169;28;20104;-65
2022/12/08 13:01:08;;;;;;;2.80;0.98;;;;;;;;;;5018083;28;20564;-65
2022/12/08 13:03:35;;;;;;;3.28;0.98;;;;;;;;;;5018263;28;20051;-65
2022/12/08 13:06:04;;;;;;;3.72;1.10;;;;;;;;;;5041805;28;20449;-66
2022/12/08 13:08:31;;;;;;;2.40;0.90;;;;;;;;;;5020010;28;20041;-65
2022/12/08 13:11:05;;;;;;;4.78;1.20;;;;;;;;;;5018878;28;20054;-65
2022/12/08 13:13:32;;;;;;;2.90;0.88;;;;;;;;;;5020100;28;20463;-65
2022/12/08 13:16:20;;;;;;;3.05;1.00;;;;;;;;;;5018426;28;20139;-64
2022/12/08 13:18:48;;;;;;;5.65;1.20;;;;;;;;;;5028566;28;20041;-65
2022/12/08 13:21:23;;;;;;;7.10;1.25;;;;;;;;;;5018014;28;20076;-66
2022/12/08 13:24:08;;;;;;;6.65;1.17;;;;;;;;;;5018716;28;20037;-65
2022/12/08 13:26:43;;;;;;;6.72;1.10;;;;;;;;;;5017106;28;20049;-66
2022/12/08 13:29:25;;;;;;;1.80;0.60;;;;;;;;;;5043174;28;20042;-65
2022/12/08 13:31:52;;;;;;;4.30;1.13;;;;;;;;;;5019280;28;20073;-66
2022/12/08 13:34:25;;;;;;;3.95;1.30;;;;;;;;;;5017095;28;20150;-65
2022/12/08 13:37:10;;;;;;;5.13;1.45;;;;;;;;;;5018568;28;20051;-61
2022/12/08 13:39:43;;;;;;;4.15;1.42;;;;;;;;;;5017260;28;20143;-63
2022/12/08 13:42:19;;;;;;;2.33;0.98;;;;;;;;;;5018109;28;20085;-65
2022/12/08 13:45:04;;;;;;;2.97;1.02;;;;;;;;;;5017163;28;21030;-62
2022/12/08 13:47:35;;;;;;;3.63;1.10;;;;;;;;;;5016913;28;20140;-65
2022/12/08 13:50:11;;;;;;;7.78;1.42;;;;;;;;;;5026982;28;20045;-65
2022/12/08 13:52:45;;;;;;;3.22;1.10;;;;;;;;;;5040345;28;20144;-65
2022/12/08 13:55:37;;;;;;;4.55;1.25;;;;;;;;;;5042918;28;20121;-65
2022/12/08 13:58:04;;;;;;;2.20;0.80;;;;;;;;;;5040504;28;20136;-65
2022/12/08 14:00:31;;;;;;;4.00;1.10;;;;;;;;;;5040392;28;20070;-65
2022/12/08 14:02:59;;;;;;;3.92;1.20;;;;;;;;;;5041248;28;20124;-64
2022/12/08 14:05:27;;;;;;;9.85;1.63;;;;;;;;;;5020259;28;20037;-65
2022/12/08 14:07:55;;;;;;;8.15;1.70;;;;;;;;;;5016773;28;20047;-65
2022/12/08 14:10:24;;;;;;;3.70;1.35;;;;;;;;;;5017897;28;20061;-65
2022/12/08 14:12:59;;;;;;;4.55;1.20;;;;;;;;;;5017001;28;20093;-64
2022/12/08 14:15:26;;;;;;;5.15;1.70;;;;;;;;;;5017150;28;20865;-64
2022/12/08 14:17:53;;;;;;;3.75;1.50;;;;;;;;;;5016497;28;20045;-65
2022/12/08 14:20:24;;;;;;;5.03;1.60;;;;;;;;;;5017481;28;20044;-65
2022/12/08 14:22:51;;;;;;;6.43;1.20;;;;;;;;;;5018893;28;20037;-65
2022/12/08 14:25:18;;;;;;;6.10;1.48;;;;;;;;;;5018340;28;20053;-65
2022/12/08 14:27:46;;;;;;;4.63;1.38;;;;;;;;;;5026848;28;20041;-66
2022/12/08 14:30:13;;;;;;;4.18;1.30;;;;;;;;;;5017373;28;20999;-65
2022/12/08 14:33:08;;;;;;;4.20;1.42;;;;;;;;;;5019896;28;20049;-65
2022/12/08 14:35:37;;;;;;;4.07;1.40;;;;;;;;;;5020153;28;20183;-65
2022/12/08 14:38:06;;;;;;;4.53;1.67;;;;;;;;;;5025409;28;20115;-65
2022/12/08 14:40:40;;;;;;;5.82;1.85;;;;;;;;;;5022898;28;20202;-64
2022/12/08 14:43:11;;;;;;;3.97;1.50;;;;;;;;;;5025446;28;21848;-64
2022/12/08 14:45:40;;;;;;;4.18;1.45;;;;;;;;;;5032666;28;20037;-65
2022/12/08 14:48:26;;;;;;;3.10;1.40;;;;;;;;;;5022400;28;20041;-64
2022/12/08 14:50:55;;;;;;;4.35;1.40;;;;;;;;;;5022063;28;20107;-64
2022/12/08 14:53:22;;;;;;;3.67;1.40;;;;;;;;;;5023633;28;22488;-64
2022/12/08 14:55:49;;;;;;;3.70;1.35;;;;;;;;;;5022443;28;20064;-64
2022/12/08 14:58:26;;;;;;;7.20;1.33;;;;;;;;;;5023293;28;20077;-64
2022/12/08 15:00:57;;;;;;;3.13;1.10;;;;;;;;;;5052754;28;20049;-66
2022/12/08 15:03:24;;;;;;;3.08;1.10;;;;;;;;;;5018483;28;20046;-64
2022/12/08 15:05:52;;;;;;;3.95;1.42;;;;;;;;;;5041518;28;20047;-64
2022/12/08 15:08:19;;;;;;;4.15;1.73;;;;;;;;;;5048216;28;20685;-66
2022/12/08 15:10:47;;;;;;;9.45;1.85;;;;;;;;;;5055240;28;20063;-65
2022/12/08 15:13:15;;;;;;;3.50;1.17;;;;;;;;;;5022532;28;20037;-65